createdAt,value
2023-05-13T00:02:42.030Z,3.70
2023-05-13T00:06:37.182Z,4.10
2023-05-13T00:10:36.568Z,3.90
2023-05-13T00:14:31.947Z,4.70
2023-05-13T00:18:31.427Z,4.10
2023-05-13T00:22:27.078Z,4.30
2023-05-13T00:26:26.920Z,4.30
2023-05-13T00:30:22.080Z,4.30
2023-05-13T00:34:21.743Z,4.70
2023-05-13T00:38:17.089Z,4.70
2023-05-13T00:42:16.588Z,4.60
2023-05-13T00:46:12.184Z,5.00
2023-05-13T00:50:11.658Z,5.20
2023-05-13T00:54:07.030Z,5.00
2023-05-13T00:58:06.979Z,4.60
2023-05-13T01:02:02.294Z,5.00
2023-05-13T01:06:01.581Z,4.90
2023-05-13T01:09:57.050Z,5.10
2023-05-13T01:13:56.413Z,4.60
2023-05-13T01:17:52.171Z,4.70
2023-05-13T01:21:51.165Z,5.20
2023-05-13T01:25:47.212Z,5.20
2023-05-13T01:29:46.699Z,5.80
2023-05-13T01:33:43.202Z,5.50
2023-05-13T01:37:41.094Z,4.80
2023-05-13T01:41:40.228Z,5.00
2023-05-13T01:45:35.992Z,5.70
2023-05-13T01:49:35.451Z,5.40
2023-05-13T01:53:31.450Z,5.00
2023-05-13T01:57:30.774Z,5.10
2023-05-13T02:01:26.517Z,5.30
2023-05-13T02:05:25.848Z,5.20
2023-05-13T02:09:22.116Z,5.50
2023-05-13T02:13:21.700Z,5.70
2023-05-13T02:17:17.467Z,5.50
2023-05-13T02:21:16.743Z,5.40
2023-05-13T02:25:10.558Z,5.60
2023-05-13T02:29:07.795Z,5.20
2023-05-13T02:33:07.835Z,5.20
2023-05-13T02:37:07.245Z,5.70
2023-05-13T02:41:05.110Z,5.30
2023-05-13T02:45:04.192Z,5.10
2023-05-13T02:49:00.256Z,5.20
2023-05-13T02:52:59.460Z,5.00
2023-05-13T02:56:52.470Z,5.50
2023-05-13T03:00:54.216Z,5.70
2023-05-13T03:04:48.491Z,5.50
2023-05-13T03:08:33.662Z,5.40
2023-05-13T03:12:18.621Z,5.20
2023-05-13T03:16:03.687Z,5.30
2023-05-13T03:19:54.823Z,5.40
2023-05-13T03:23:46.337Z,5.50
2023-05-13T03:27:38.142Z,5.80
2023-05-13T03:31:37.822Z,5.60
2023-05-13T03:35:34.524Z,5.40
2023-05-13T03:39:34.670Z,5.60
2023-05-13T03:43:30.463Z,5.60
2023-05-13T03:47:32.600Z,5.40
2023-05-13T03:51:30.289Z,5.50
2023-05-13T03:55:29.597Z,5.60
2023-05-13T03:59:24.539Z,6.00
2023-05-13T04:03:10.049Z,6.20
2023-05-13T04:06:54.993Z,6.40
2023-05-13T04:10:40.077Z,6.30
2023-05-13T04:14:24.821Z,5.50
2023-05-13T04:18:09.810Z,5.90
2023-05-13T04:21:54.860Z,5.50
2023-05-13T04:25:48.280Z,5.40
2023-05-13T04:29:39.579Z,5.70
2023-05-13T04:33:39.178Z,6.10
2023-05-13T04:37:35.466Z,5.50
2023-05-13T04:41:38.156Z,5.30
2023-05-13T04:45:33.543Z,6.40
2023-05-13T04:49:33.566Z,6.60
2023-05-13T04:53:29.423Z,7.10
2023-05-13T04:57:32.128Z,6.40
2023-05-13T05:01:25.519Z,6.30
2023-05-13T05:05:10.659Z,6.30
2023-05-13T05:08:56.330Z,6.30
2023-05-13T05:12:42.733Z,6.20
2023-05-13T05:16:27.956Z,6.30
2023-05-13T05:20:23.000Z,4.80
2023-05-13T05:24:15.228Z,4.80
2023-05-13T05:28:10.453Z,5.80
2023-05-13T05:32:12.832Z,4.20
2023-05-13T05:36:08.968Z,3.80
2023-05-13T05:40:08.796Z,3.30
2023-05-13T05:44:07.480Z,3.60
2023-05-13T05:48:07.159Z,3.50
2023-05-13T05:52:03.965Z,4.10
2023-05-13T05:56:03.891Z,4.50
2023-05-13T05:59:59.589Z,2.30
2023-05-13T06:03:58.680Z,2.30
2023-05-13T06:07:54.835Z,2.70
2023-05-13T06:11:54.118Z,2.70
2023-05-13T06:15:49.805Z,2.10
2023-05-13T06:19:49.301Z,2.30
2023-05-13T06:23:44.692Z,2.10
2023-05-13T06:27:46.114Z,1.90
2023-05-13T06:31:41.932Z,2.20
2023-05-13T06:35:41.087Z,2.20
2023-05-13T06:39:37.560Z,3.00
2023-05-13T06:43:37.403Z,2.90
2023-05-13T06:47:42.753Z,2.80
2023-05-13T06:51:43.980Z,2.90
2023-05-13T06:55:39.870Z,2.60
2023-05-13T06:59:39.349Z,3.00
2023-05-13T07:03:34.907Z,2.80
2023-05-13T07:07:34.398Z,2.80
2023-05-13T07:11:29.697Z,1.70
2023-05-13T07:15:28.961Z,1.60
2023-05-13T07:19:24.800Z,2.10
2023-05-13T07:23:24.272Z,1.60
2023-05-13T07:27:20.069Z,1.60
2023-05-13T07:31:19.604Z,1.60
2023-05-13T07:35:14.951Z,1.30
2023-05-13T07:39:14.013Z,1.60
2023-05-13T07:43:09.673Z,1.40
2023-05-13T07:47:08.653Z,1.60
2023-05-13T07:51:03.876Z,2.00
2023-05-13T07:55:03.209Z,1.30
2023-05-13T07:58:58.832Z,1.60
2023-05-13T08:02:58.453Z,1.60
2023-05-13T08:06:53.896Z,1.30
2023-05-13T08:10:53.041Z,1.60
2023-05-13T08:14:49.140Z,1.30
2023-05-13T08:18:48.347Z,1.20
2023-05-13T08:22:43.715Z,1.50
2023-05-13T08:26:43.226Z,1.20
2023-05-13T08:30:36.341Z,0.90
2023-05-13T08:38:15.404Z,1.10
2023-05-13T08:42:10.956Z,1.50
2023-05-13T08:46:10.527Z,1.40
2023-05-13T08:50:06.087Z,1.30
2023-05-13T08:54:05.809Z,1.10
2023-05-13T08:57:58.931Z,1.00
2023-05-13T09:05:32.188Z,1.30
2023-05-13T09:09:27.837Z,1.20
2023-05-13T09:13:26.906Z,1.30
2023-05-13T09:17:22.964Z,1.50
2023-05-13T09:21:22.076Z,1.50
2023-05-13T09:25:18.248Z,1.40
2023-05-13T09:29:15.376Z,1.00
2023-05-13T09:33:11.057Z,1.10
2023-05-13T09:37:10.457Z,1.00
2023-05-13T09:41:05.963Z,1.30
2023-05-13T09:45:05.617Z,0.90
2023-05-13T09:49:00.959Z,1.00
2023-05-13T09:53:00.060Z,0.90
2023-05-13T09:56:55.188Z,0.90
2023-05-13T10:00:52.377Z,0.90
2023-05-13T10:04:52.609Z,1.20
2023-05-13T10:08:52.209Z,1.00
2023-05-13T10:12:48.362Z,1.30
2023-05-13T10:16:47.671Z,0.90
2023-05-13T10:20:43.114Z,1.10
2023-05-13T10:24:41.001Z,1.10
2023-05-13T10:28:34.263Z,1.30
2023-05-13T10:32:37.954Z,0.90
2023-05-13T10:36:33.138Z,1.00
2023-05-13T10:40:32.694Z,1.00
2023-05-13T10:44:28.166Z,1.00
2023-05-13T10:48:27.811Z,1.20
2023-05-13T10:52:23.487Z,1.20
2023-05-13T10:56:20.405Z,1.60
2023-05-13T11:00:21.164Z,1.10
2023-05-13T11:04:20.843Z,1.00
2023-05-13T11:08:18.897Z,0.80
2023-05-13T11:12:10.093Z,0.90
2023-05-13T11:15:58.838Z,1.30
2023-05-13T11:19:47.370Z,1.10
2023-05-13T11:23:33.980Z,1.30
2023-05-13T11:27:20.372Z,1.10
2023-05-13T11:31:09.282Z,1.10
2023-05-13T11:34:55.798Z,1.00
2023-05-13T11:38:40.633Z,1.00
2023-05-13T11:42:25.620Z,1.10
2023-05-13T11:46:10.958Z,0.90
2023-05-13T11:49:56.088Z,1.30
2023-05-13T11:53:41.201Z,1.40
2023-05-13T11:57:26.299Z,0.90
2023-05-13T12:01:11.548Z,1.10
2023-05-13T12:04:56.798Z,1.00
2023-05-13T12:08:47.870Z,1.00
2023-05-13T12:12:39.334Z,1.10
2023-05-13T12:16:31.506Z,1.10
2023-05-13T12:20:30.697Z,1.10
2023-05-13T12:24:26.318Z,1.20
2023-05-13T12:28:25.862Z,0.90
2023-05-13T12:32:21.514Z,1.30
2023-05-13T12:36:21.028Z,1.00
2023-05-13T12:40:16.539Z,1.20
2023-05-13T12:44:15.718Z,1.20
2023-05-13T12:48:11.360Z,1.00
2023-05-13T12:51:56.282Z,1.00
2023-05-13T12:55:41.233Z,1.30
2023-05-13T12:59:26.303Z,1.30
2023-05-13T13:03:11.838Z,1.70
2023-05-13T13:06:57.092Z,1.20
2023-05-13T13:10:42.166Z,0.80
2023-05-13T13:14:27.280Z,1.10
2023-05-13T13:18:12.574Z,1.00
2023-05-13T13:22:03.765Z,1.30
2023-05-13T13:25:55.168Z,0.90
2023-05-13T13:29:56.398Z,1.00
2023-05-13T13:33:55.913Z,1.00
2023-05-13T13:37:51.331Z,1.40
2023-05-13T13:41:53.545Z,1.00
2023-05-13T13:45:49.841Z,1.10
2023-05-13T13:49:48.911Z,1.20
2023-05-13T13:53:44.378Z,1.00
2023-05-13T13:57:43.729Z,1.20
2023-05-13T14:01:40.496Z,1.00
2023-05-13T14:05:40.012Z,1.10
2023-05-13T14:09:35.329Z,0.90
2023-05-13T14:13:37.669Z,0.90
2023-05-13T14:17:33.762Z,1.00
2023-05-13T14:21:32.807Z,6.10
2023-05-13T14:25:31.482Z,1.20
2023-05-13T14:29:30.756Z,5.30
2023-05-13T14:33:26.428Z,4.60
2023-05-13T14:37:25.447Z,0.80
2023-05-13T14:41:20.406Z,1.50
2023-05-13T14:45:19.592Z,1.60
2023-05-13T14:49:16.005Z,5.70
2023-05-13T14:53:15.316Z,10.90
2023-05-13T14:57:10.688Z,1.70
2023-05-13T15:01:10.244Z,1.50
2023-05-13T15:05:14.461Z,1.00
2023-05-13T15:09:12.518Z,1.10
2023-05-13T15:13:14.238Z,0.90
2023-05-13T15:17:12.883Z,1.10
2023-05-13T15:21:15.351Z,0.90
2023-05-13T15:25:13.421Z,1.30
2023-05-13T15:29:14.840Z,1.10
2023-05-13T15:33:13.463Z,5.30
2023-05-13T15:37:14.960Z,2.00
2023-05-13T15:41:13.603Z,2.30
2023-05-13T15:45:14.966Z,6.00
2023-05-13T15:49:13.618Z,1.90
2023-05-13T15:53:15.051Z,1.50
2023-05-13T15:57:13.391Z,1.20
2023-05-13T16:01:14.959Z,1.20
2023-05-13T16:05:13.513Z,1.00
2023-05-13T16:09:14.959Z,1.10
2023-05-13T16:13:13.678Z,1.00
2023-05-13T16:17:14.992Z,1.20
2023-05-13T16:21:13.450Z,4.70
2023-05-13T16:25:15.093Z,5.30
2023-05-13T16:29:13.521Z,4.30
2023-05-13T16:33:15.116Z,10.90
2023-05-13T16:37:13.546Z,3.50
2023-05-13T16:41:14.784Z,2.50
2023-05-13T16:45:13.650Z,3.80
2023-05-13T16:49:15.023Z,3.80
2023-05-13T16:53:13.579Z,1.80
2023-05-13T16:57:15.093Z,1.80
2023-05-13T17:01:13.613Z,1.20
2023-05-13T17:05:15.045Z,1.80
2023-05-13T17:09:10.827Z,2.60
2023-05-13T17:13:10.243Z,2.80
2023-05-13T17:17:05.866Z,3.40
2023-05-13T17:21:05.221Z,3.30
2023-05-13T17:25:00.915Z,4.30
2023-05-13T17:29:00.386Z,6.70
2023-05-13T17:32:55.819Z,4.50
2023-05-13T17:36:54.803Z,4.80
2023-05-13T17:40:50.010Z,4.50
2023-05-13T17:44:49.438Z,2.60
2023-05-13T17:48:44.993Z,3.00
2023-05-13T17:52:44.866Z,3.40
2023-05-13T17:56:40.927Z,2.40
2023-05-13T18:00:39.863Z,2.20
2023-05-13T18:04:38.128Z,2.30
2023-05-13T18:08:34.026Z,2.80
2023-05-13T18:12:33.656Z,2.80
2023-05-13T18:16:29.160Z,3.10
2023-05-13T18:20:28.389Z,3.40
2023-05-13T18:24:23.908Z,2.80
2023-05-13T18:28:23.087Z,3.00
2023-05-13T18:32:18.953Z,3.70
2023-05-13T18:36:18.429Z,2.90
2023-05-13T18:40:13.971Z,3.30
2023-05-13T18:44:13.349Z,2.90
2023-05-13T18:48:09.048Z,5.00
2023-05-13T18:52:08.517Z,5.50
2023-05-13T18:56:03.955Z,5.80
2023-05-13T19:00:03.049Z,5.80
2023-05-13T19:03:59.082Z,3.70
2023-05-13T19:07:58.643Z,3.40
2023-05-13T19:11:53.866Z,7.10
2023-05-13T19:15:52.762Z,3.70
2023-05-13T19:19:48.181Z,3.80
2023-05-13T19:23:47.742Z,4.00
2023-05-13T19:27:43.307Z,3.50
2023-05-13T19:31:42.404Z,3.40
2023-05-13T19:35:38.049Z,3.40
2023-05-13T19:39:37.070Z,2.90
2023-05-13T19:43:33.174Z,3.10
2023-05-13T19:47:33.095Z,2.80
2023-05-13T19:51:28.920Z,2.80
2023-05-13T19:55:28.099Z,7.90
2023-05-13T19:59:23.228Z,14.80
2023-05-13T20:03:22.947Z,10.10
2023-05-13T20:07:18.150Z,8.80
2023-05-13T20:11:17.496Z,5.90
2023-05-13T20:15:12.930Z,6.20
2023-05-13T20:19:12.139Z,5.10
2023-05-13T20:23:08.323Z,3.30
2023-05-13T20:27:07.956Z,2.80
2023-05-13T20:31:03.056Z,3.00
2023-05-13T20:35:02.204Z,2.50
2023-05-13T20:38:58.101Z,2.30
2023-05-13T20:42:57.801Z,2.50
2023-05-13T20:46:53.125Z,3.20
2023-05-13T20:50:52.231Z,3.30
2023-05-13T20:54:48.282Z,4.10
2023-05-13T20:58:47.876Z,2.70
2023-05-13T21:02:43.090Z,3.00
2023-05-13T21:06:42.098Z,3.00
2023-05-13T21:10:37.061Z,3.20
2023-05-13T21:14:36.173Z,3.40
2023-05-13T21:18:32.029Z,2.50
2023-05-13T21:22:31.481Z,2.70
2023-05-13T21:26:27.448Z,2.70
2023-05-13T21:30:26.801Z,2.50
2023-05-13T21:34:23.694Z,2.50
2023-05-13T21:38:22.936Z,2.60
2023-05-13T21:42:19.789Z,2.80
2023-05-13T21:46:20.210Z,2.80
2023-05-13T21:50:16.475Z,2.40
2023-05-13T21:54:16.069Z,2.30
2023-05-13T21:58:13.956Z,2.30
2023-05-13T22:02:14.216Z,2.50
2023-05-13T22:06:11.089Z,2.00
2023-05-13T22:10:11.145Z,2.00
2023-05-13T22:14:08.081Z,2.60
2023-05-13T22:18:08.199Z,2.20
2023-05-13T22:22:05.032Z,2.30
2023-05-13T22:26:05.176Z,2.70
2023-05-13T22:30:01.958Z,2.10
2023-05-13T22:34:01.312Z,1.90
2023-05-13T22:37:58.324Z,1.90
2023-05-13T22:41:57.551Z,2.20
2023-05-13T22:45:55.357Z,2.70
2023-05-13T22:49:55.116Z,2.50
2023-05-13T22:53:52.446Z,2.30
2023-05-13T22:57:52.254Z,2.00
2023-05-13T23:01:50.246Z,2.40
2023-05-13T23:05:49.311Z,2.80
2023-05-13T23:09:46.467Z,3.20
2023-05-13T23:13:46.117Z,2.90
2023-05-13T23:17:43.339Z,2.40
2023-05-13T23:21:42.981Z,2.60
2023-05-13T23:25:40.812Z,2.40
2023-05-13T23:29:40.324Z,2.50
2023-05-13T23:33:39.074Z,2.40
2023-05-13T23:37:39.169Z,2.60
2023-05-13T23:41:36.635Z,2.10
2023-05-13T23:45:36.295Z,2.30
2023-05-13T23:49:33.393Z,2.40
2023-05-13T23:53:33.277Z,2.30
2023-05-13T23:57:30.408Z,2.10
